Time;durP1;ratioP1;P1;durP2;ratioP2;P2;SDS_P1;SDS_P2;PMS_P1;PMS_P2;Temp;Humidity;BMP_temperature;BMP_pressure;BME280_temperature;BME280_humidity;BME280_pressure;Samples;Min_cycle;Max_cycle;Signal;HPM_P1;HPM_P2
2022/11/28 00:02:26;;;;;;;;;;;7.80;99.90;;;;;;5103087;28;19941;-85
2022/11/28 00:04:52;;;;;;;;;;;7.80;99.90;;;;;;5116814;28;19932;-86
2022/11/28 00:07:19;;;;;;;;;;;7.80;99.90;;;;;;5113612;28;20292;-85
2022/11/28 00:09:47;;;;;;;;;;;7.70;99.90;;;;;;5088803;28;19955;-85
2022/11/28 00:12:14;;;;;;;;;;;7.80;99.90;;;;;;5088574;28;19928;-85
2022/11/28 00:14:41;;;;;;;;;;;7.80;99.90;;;;;;5112655;28;20309;-85
2022/11/28 00:17:07;;;;;;;;;;;8.30;99.90;;;;;;5112559;28;19924;-85
2022/11/28 00:19:34;;;;;;;;;;;7.90;99.90;;;;;;5118153;27;19928;-85
2022/11/28 00:22:01;;;;;;;;;;;7.90;99.90;;;;;;5093756;28;19999;-85
2022/11/28 00:24:28;;;;;;;;;;;7.90;99.90;;;;;;5093439;28;20034;-85
2022/11/28 00:26:56;;;;;;;;;;;7.90;99.90;;;;;;5114184;28;19924;-85
2022/11/28 00:29:23;;;;;;;;;;;8.00;99.90;;;;;;5092227;28;19951;-85
2022/11/28 00:31:50;;;;;;;;;;;8.00;99.90;;;;;;5090724;28;19942;-85
2022/11/28 00:34:17;;;;;;;;;;;8.00;99.90;;;;;;5107011;28;19932;-86
2022/11/28 00:36:44;;;;;;;;;;;8.00;99.90;;;;;;5094064;28;20034;-86
2022/11/28 00:39:11;;;;;;;;;;;8.00;99.90;;;;;;5110442;28;19952;-85
2022/11/28 00:41:38;;;;;;;;;;;8.00;99.90;;;;;;5107866;28;19928;-88
2022/11/28 00:44:06;;;;;;;;;;;8.00;99.90;;;;;;5089470;28;19950;-86
2022/11/28 00:46:33;;;;;;;;;;;8.00;99.90;;;;;;5090630;28;19947;-86
2022/11/28 00:49:00;;;;;;;;;;;8.00;99.90;;;;;;5097295;28;20569;-86
2022/11/28 00:51:28;;;;;;;;;;;8.10;99.90;;;;;;5097804;28;19980;-86
2022/11/28 00:53:56;;;;;;;;;;;8.10;99.90;;;;;;5098216;28;19931;-86
2022/11/28 00:56:24;;;;;;;;;;;8.00;99.90;;;;;;5089312;28;20038;-86
2022/11/28 00:58:51;;;;;;;;;;;8.10;99.90;;;;;;5098088;28;20015;-86
2022/11/28 01:01:20;;;;;;;;;;;8.10;99.90;;;;;;5089004;28;20338;-86
2022/11/28 01:03:48;;;;;;;;;;;7.90;99.90;;;;;;5089735;28;20612;-86
2022/11/28 01:06:20;;;;;;;;;;;8.00;99.90;;;;;;5106197;28;20403;-86
2022/11/28 01:08:46;;;;;;;;;;;8.00;99.90;;;;;;5111025;28;20422;-86
2022/11/28 01:11:13;;;;;;;;;;;8.00;99.90;;;;;;5088037;28;19963;-86
2022/11/28 01:13:40;;;;;;;;;;;8.10;99.90;;;;;;5091757;28;19928;-86
2022/11/28 01:16:07;;;;;;;;;;;8.00;99.90;;;;;;5089536;28;19924;-85
2022/11/28 01:18:35;;;;;;;;;;;8.00;99.90;;;;;;5089898;28;20595;-86
2022/11/28 01:21:02;;;;;;;;;;;8.00;99.90;;;;;;5110994;28;19932;-85
2022/11/28 01:23:29;;;;;;;;;;;8.00;99.90;;;;;;5111476;28;19931;-85
2022/11/28 01:25:55;;;;;;;;;;;8.00;99.90;;;;;;5083955;28;20347;-85
2022/11/28 01:28:22;;;;;;;;;;;8.00;99.90;;;;;;5086815;28;19924;-84
2022/11/28 01:30:49;;;;;;;;;;;8.00;99.90;;;;;;5088160;28;19951;-86
2022/11/28 01:33:16;;;;;;;;;;;8.00;99.90;;;;;;5090365;28;20072;-85
2022/11/28 01:35:53;;;;;;;;;;;8.00;99.90;;;;;;5111134;28;19924;-85
2022/11/28 01:38:20;;;;;;;;;;;8.70;99.90;;;;;;5089813;28;20027;-85
2022/11/28 01:40:46;;;;;;;;;;;8.00;99.90;;;;;;5093505;28;20060;-85
2022/11/28 01:43:13;;;;;;;;;;;8.10;99.90;;;;;;5112302;28;19932;-85
2022/11/28 01:45:40;;;;;;;;;;;8.10;99.90;;;;;;5113596;28;20369;-86
2022/11/28 01:48:07;;;;;;;;;;;8.60;99.90;;;;;;5092462;28;20401;-85
2022/11/28 01:50:35;;;;;;;;;;;8.10;99.90;;;;;;5096728;28;19928;-86
2022/11/28 01:53:04;;;;;;;;;;;8.20;99.90;;;;;;5089153;28;19979;-85
2022/11/28 01:55:33;;;;;;;;;;;8.20;99.90;;;;;;5088659;28;20651;-86
2022/11/28 01:58:00;;;;;;;;;;;8.30;99.90;;;;;;5091768;28;19928;-86
2022/11/28 02:00:27;;;;;;;;;;;8.20;99.90;;;;;;5086589;28;20012;-86
2022/11/28 02:02:57;;;;;;;;;;;8.20;99.90;;;;;;5089069;28;19938;-86
2022/11/28 02:05:24;;;;;;;;;;;8.20;99.90;;;;;;5106903;28;19938;-86
2022/11/28 02:07:51;;;;;;;;;;;8.20;99.90;;;;;;5087775;28;19939;-86
2022/11/28 02:10:18;;;;;;;;;;;;;;;;;;5106526;28;19928;-85
2022/11/28 02:12:55;;;;;;;;;;;8.30;99.90;;;;;;5112488;28;20385;-85
2022/11/28 02:15:32;;;;;;;;;;;8.30;99.90;;;;;;5111873;28;19924;-86
2022/11/28 02:18:03;;;;;;;;;;;8.30;99.90;;;;;;5109258;28;19931;-85
2022/11/28 02:21:01;;;;;;;;;;;8.20;99.90;;;;;;5102895;28;20006;-86
2022/11/28 02:23:37;;;;;;;;;;;8.70;99.90;;;;;;5026320;28;19936;-86
2022/11/28 02:26:10;;;;;;;;;;;8.20;99.90;;;;;;5097211;28;19928;-85
2022/11/28 02:28:58;;;;;;;;;;;8.20;99.90;;;;;;5080268;28;19935;-86
2022/11/28 02:31:36;;;;;;;;;;;8.30;99.90;;;;;;5076095;28;19928;-86
2022/11/28 02:34:09;;;;;;;;;;;8.30;99.90;;;;;;5086882;28;19932;-86
2022/11/28 02:36:40;;;;;;;;;;;8.30;99.90;;;;;;5108631;28;20638;-86
2022/11/28 02:39:11;;;;;;;;;;;8.30;99.90;;;;;;5109045;28;20590;-86
2022/11/28 02:41:41;;;;;;;;;;;8.30;99.90;;;;;;5079603;28;19954;-86
2022/11/28 02:44:10;;;;;;;;;;;8.30;99.90;;;;;;5087818;28;19924;-85
2022/11/28 02:46:41;;;;;;;;;;;8.20;99.90;;;;;;5090312;28;19924;-85
2022/11/28 02:49:13;;;;;;;;;;;8.20;99.90;;;;;;5087489;28;19942;-86
2022/11/28 02:51:41;;;;;;;;;;;8.20;99.90;;;;;;5105221;28;20524;-85
2022/11/28 02:54:10;;;;;;;;;;;8.10;99.90;;;;;;5087940;28;19931;-86
2022/11/28 02:56:36;;;;;;;;;;;8.00;99.90;;;;;;5086626;28;19924;-85
2022/11/28 02:59:03;;;;;;;;;;;8.00;99.90;;;;;;5087978;28;19932;-85
2022/11/28 03:01:32;;;;;;;;;;;7.90;99.90;;;;;;5088614;28;19964;-85
2022/11/28 03:04:15;;;;;;;;;;;7.90;99.90;;;;;;5080107;28;19939;-85
2022/11/28 03:06:47;;;;;;;;;;;7.90;99.90;;;;;;5105404;28;19938;-85
2022/11/28 03:09:26;;;;;;;;;;;7.80;99.90;;;;;;5086820;28;19970;-85
2022/11/28 03:11:56;;;;;;;;;;;7.80;99.90;;;;;;5087799;28;19928;-85
2022/11/28 03:14:31;;;;;;;;;;;7.70;99.90;;;;;;5088074;28;19978;-85
2022/11/28 03:17:04;;;;;;;;;;;7.70;99.90;;;;;;5093504;28;19924;-86
2022/11/28 03:19:34;;;;;;;;;;;7.70;99.90;;;;;;5108051;28;19916;-85
2022/11/28 03:22:07;;;;;;;;;;;7.70;99.90;;;;;;5119204;28;19939;-86
2022/11/28 03:24:36;;;;;;;;;;;7.70;99.90;;;;;;5109187;28;19939;-85
2022/11/28 03:27:05;;;;;;;;;;;7.70;99.90;;;;;;5102055;28;19928;-86
2022/11/28 03:29:34;;;;;;;;;;;7.70;99.90;;;;;;5103682;28;19935;-85
2022/11/28 03:32:03;;;;;;;;;;;7.70;99.90;;;;;;5122092;28;19928;-85
2022/11/28 03:34:33;;;;;;;;;;;7.70;99.90;;;;;;5105294;28;19912;-86
2022/11/28 03:37:01;;;;;;;;;;;7.70;99.90;;;;;;5096358;28;20005;-85
2022/11/28 03:39:39;;;;;;;;;;;7.70;99.90;;;;;;5096877;28;20404;-87
2022/11/28 03:42:09;;;;;;;;;;;7.70;99.90;;;;;;5092977;28;20095;-87
2022/11/28 03:44:39;;;;;;;;;;;7.70;99.90;;;;;;5094052;28;19951;-85
2022/11/28 03:47:06;;;;;;;;;;;7.70;99.90;;;;;;5114271;28;19945;-86
2022/11/28 03:49:37;;;;;;;;;;;7.70;99.90;;;;;;5091164;28;19924;-85
2022/11/28 03:52:05;;;;;;;;;;;7.70;99.90;;;;;;5090853;28;19943;-85
2022/11/28 03:54:34;;;;;;;;;;;7.70;99.90;;;;;;5111997;28;20023;-85
2022/11/28 03:57:05;;;;;;;;;;;7.70;99.90;;;;;;5093601;28;19943;-85
2022/11/28 03:59:34;;;;;;;;;;;7.60;99.90;;;;;;5090142;28;20010;-85
2022/11/28 04:02:04;;;;;;;;;;;7.60;99.90;;;;;;5114411;28;19924;-85
2022/11/28 04:04:35;;;;;;;;;;;7.70;99.90;;;;;;5094356;28;19944;-85
2022/11/28 04:07:07;;;;;;;;;;;7.60;99.90;;;;;;5112776;28;19928;-85
2022/11/28 04:09:37;;;;;;;;;;;7.70;99.90;;;;;;5094866;28;20509;-85
2022/11/28 04:12:07;;;;;;;;;;;7.60;99.90;;;;;;5092805;28;19939;-86
2022/11/28 04:14:35;;;;;;;;;;;7.60;99.90;;;;;;5112981;28;19931;-85
2022/11/28 04:17:05;;;;;;;;;;;7.60;99.90;;;;;;5114390;28;19951;-85
2022/11/28 04:19:38;;;;;;;;;;;8.00;99.90;;;;;;5115302;28;20419;-85
2022/11/28 04:22:10;;;;;;;;;;;7.60;99.90;;;;;;5126082;28;19928;-85
2022/11/28 04:24:39;;;;;;;;;;;7.60;99.90;;;;;;5105831;28;19969;-85
2022/11/28 04:27:08;;;;;;;;;;;7.70;99.90;;;;;;5123526;28;19927;-84
2022/11/28 04:29:37;;;;;;;;;;;7.70;99.90;;;;;;5102824;28;19936;-85
2022/11/28 04:32:06;;;;;;;;;;;7.60;99.90;;;;;;5114338;28;19954;-86
2022/11/28 04:34:35;;;;;;;;;;;7.60;99.90;;;;;;5110019;28;20366;-86
2022/11/28 04:37:02;;;;;;;;;;;7.60;99.90;;;;;;5092667;28;20128;-85
2022/11/28 04:39:32;;;;;;;;;;;7.60;99.90;;;;;;5093440;28;20438;-86
2022/11/28 04:42:01;;;;;;;;;;;7.60;99.90;;;;;;5112455;28;19928;-85
2022/11/28 04:44:31;;;;;;;;;;;7.60;99.90;;;;;;5108080;28;19935;-86
2022/11/28 04:46:57;;;;;;;;;;;7.60;99.90;;;;;;5113937;27;19924;-85
2022/11/28 04:49:26;;;;;;;;;;;7.60;99.90;;;;;;5108040;28;19939;-86
2022/11/28 04:51:58;;;;;;;;;;;7.60;99.90;;;;;;5102737;28;19947;-88
2022/11/28 04:54:28;;;;;;;;;;;7.60;99.90;;;;;;5107170;28;19927;-86
2022/11/28 04:56:58;;;;;;;;;;;7.60;99.90;;;;;;5118820;28;19938;-84
2022/11/28 04:59:26;;;;;;;;;;;7.50;99.90;;;;;;5113831;28;19935;-84
2022/11/28 05:01:54;;;;;;;;;;;7.50;99.90;;;;;;5097621;28;19928;-84
2022/11/28 05:04:20;;;;;;;;;;;7.50;99.90;;;;;;5099695;28;19920;-84
2022/11/28 05:06:48;;;;;;;;;;;9.10;99.90;;;;;;5105420;27;19934;-84
2022/11/28 05:09:14;;;;;;;;;;;7.50;99.90;;;;;;5103481;28;19993;-84
2022/11/28 05:11:41;;;;;;;;;;;7.50;99.90;;;;;;5123068;28;19942;-84
2022/11/28 05:14:09;;;;;;;;;;;7.50;99.90;;;;;;5123232;28;19924;-83
2022/11/28 05:16:36;;;;;;;;;;;7.50;99.90;;;;;;5104833;28;19928;-84
2022/11/28 05:19:03;;;;;;;;;;;7.50;99.90;;;;;;5122009;28;19911;-83
2022/11/28 05:21:30;;;;;;;;;;;7.50;99.90;;;;;;5103625;28;19931;-84
2022/11/28 05:23:57;;;;;;;;;;;8.50;99.90;;;;;;5127531;28;19963;-85
2022/11/28 05:26:24;;;;;;;;;;;7.50;99.90;;;;;;5132442;28;19935;-85
2022/11/28 05:28:51;;;;;;;;;;;7.50;99.90;;;;;;5109451;28;19947;-84
2022/11/28 05:31:21;;;;;;;;;;;7.50;99.90;;;;;;5126922;28;19920;-85
2022/11/28 05:33:47;;;;;;;;;;;8.70;99.90;;;;;;5131271;28;19934;-85
2022/11/28 05:36:15;;;;;;;;;;;7.50;99.90;;;;;;5096248;28;19924;-84
2022/11/28 05:38:43;;;;;;;;;;;7.50;99.90;;;;;;5094389;28;19924;-85
2022/11/28 05:41:20;;;;;;;;;;;7.40;99.90;;;;;;5094432;28;19912;-85
2022/11/28 05:43:47;;;;;;;;;;;7.30;99.90;;;;;;5092488;28;19973;-85
2022/11/28 05:46:14;;;;;;;;;;;7.40;99.90;;;;;;5092138;28;19924;-85
2022/11/28 05:48:43;;;;;;;;;;;7.70;99.90;;;;;;5110120;28;19984;-85
2022/11/28 05:51:10;;;;;;;;;;;7.40;99.90;;;;;;5102352;28;20022;-87
2022/11/28 05:53:37;;;;;;;;;;;7.40;99.90;;;;;;5092107;28;19931;-86
2022/11/28 05:56:06;;;;;;;;;;;7.50;99.90;;;;;;5109383;28;19938;-87
2022/11/28 05:58:33;;;;;;;;;;;7.40;99.90;;;;;;5091007;28;19928;-88
2022/11/28 06:01:09;;;;;;;;;;;7.40;99.90;;;;;;5121579;28;19928;-88
2022/11/28 06:03:36;;;;;;;;;;;7.40;99.90;;;;;;5099911;28;19944;-86
2022/11/28 06:06:04;;;;;;;;;;;7.40;99.90;;;;;;5089733;28;19924;-87
2022/11/28 06:08:31;;;;;;;;;;;7.40;99.90;;;;;;5092560;28;20017;-87
2022/11/28 06:10:58;;;;;;;;;;;7.40;99.90;;;;;;5112367;28;19931;-87
2022/11/28 06:13:25;;;;;;;;;;;7.40;99.90;;;;;;5089815;28;19927;-90
2022/11/28 06:15:51;;;;;;;;;;;7.40;99.90;;;;;;5090426;28;19944;-86
2022/11/28 06:18:18;;;;;;;;;;;8.40;99.90;;;;;;5111680;28;19927;-87
2022/11/28 06:20:47;;;;;;;;;;;7.40;99.90;;;;;;5116937;28;19923;-86
2022/11/28 06:23:15;;;;;;;;;;;7.40;99.90;;;;;;5094622;28;20147;-88
2022/11/28 06:25:43;;;;;;;;;;;7.30;99.90;;;;;;5093352;28;20155;-86
2022/11/28 06:28:09;;;;;;;;;;;7.30;99.90;;;;;;5088936;28;19931;-86
2022/11/28 06:30:36;;;;;;;;;;;7.30;99.90;;;;;;5112097;28;19963;-87
2022/11/28 06:33:04;;;;;;;;;;;7.70;99.90;;;;;;5087698;28;19977;-87
2022/11/28 06:35:31;;;;;;;;;;;7.30;99.90;;;;;;5091410;28;19958;-87
2022/11/28 06:37:57;;;;;;;;;;;7.30;99.90;;;;;;5109353;28;19934;-85
2022/11/28 06:40:26;;;;;;;;;;;7.30;99.90;;;;;;5090656;28;19935;-87
2022/11/28 06:42:53;;;;;;;;;;;7.40;99.90;;;;;;5089777;28;19975;-87
2022/11/28 06:45:19;;;;;;;;;;;7.20;99.90;;;;;;5091140;28;20007;-85
2022/11/28 06:47:48;;;;;;;;;;;7.40;99.90;;;;;;5101144;28;20406;-86
2022/11/28 06:50:15;;;;;;;;;;;7.40;99.90;;;;;;5078234;28;19924;-88
2022/11/28 06:52:42;;;;;;;;;;;7.40;99.90;;;;;;5110284;28;19930;-87
2022/11/28 06:55:09;;;;;;;;;;;7.50;99.90;;;;;;5110944;28;19935;-88
2022/11/28 06:57:39;;;;;;;;;;;7.50;99.90;;;;;;5107429;28;19935;-86
2022/11/28 07:00:08;;;;;;;;;;;7.50;99.90;;;;;;5088117;28;20003;-87
2022/11/28 07:02:34;;;;;;;;;;;7.60;99.90;;;;;;5083058;28;19955;-89
2022/11/28 07:05:01;;;;;;;;;;;7.60;99.90;;;;;;5096186;28;19978;-87
2022/11/28 07:07:28;;;;;;;;;;;7.60;99.90;;;;;;5113385;28;19931;-87
2022/11/28 07:09:55;;;;;;;;;;;7.70;99.90;;;;;;5089210;28;20016;-89
2022/11/28 07:12:23;;;;;;;;;;;7.70;99.90;;;;;;5106461;28;19923;-86
2022/11/28 07:14:51;;;;;;;;;;;7.70;99.90;;;;;;5089542;28;19931;-86
2022/11/28 07:17:17;;;;;;;;;;;7.80;99.90;;;;;;5090874;28;19924;-85
2022/11/28 07:19:44;;;;;;;;;;;7.80;99.90;;;;;;5106239;28;20023;-85
2022/11/28 07:22:11;;;;;;;;;;;7.80;99.90;;;;;;5084991;28;20023;-86
2022/11/28 07:24:39;;;;;;;;;;;7.80;99.90;;;;;;5101885;28;19935;-86
2022/11/28 07:27:06;;;;;;;;;;;7.90;99.90;;;;;;5084380;28;19982;-86
2022/11/28 07:29:35;;;;;;;;;;;7.90;99.90;;;;;;5091844;28;20057;-87
2022/11/28 07:32:04;;;;;;;;;;;7.90;99.90;;;;;;5092540;28;20347;-87
2022/11/28 07:34:31;;;;;;;;;;;7.90;99.90;;;;;;5091768;28;19928;-87
2022/11/28 07:36:59;;;;;;;;;;;8.00;99.90;;;;;;5091344;28;20002;-87
2022/11/28 07:39:26;;;;;;;;;;;7.90;99.90;;;;;;5090789;28;19970;-87
2022/11/28 07:41:53;;;;;;;;;;;8.00;99.90;;;;;;5116928;28;19927;-87
2022/11/28 07:44:22;;;;;;;;;;;8.00;99.90;;;;;;5094552;28;19924;-87
2022/11/28 07:46:51;;;;;;;;;;;7.90;99.90;;;;;;5093052;28;19932;-87
2022/11/28 07:49:19;;;;;;;;;;;7.90;99.90;;;;;;5090909;28;20010;-88
2022/11/28 07:51:46;;;;;;;;;;;8.00;99.90;;;;;;5090699;28;19928;-88
2022/11/28 07:54:12;;;;;;;;;;;8.00;99.90;;;;;;5087879;28;20393;-88
2022/11/28 07:56:39;;;;;;;;;;;8.00;99.90;;;;;;5112076;28;19996;-88
2022/11/28 07:59:07;;;;;;;;;;;8.00;99.90;;;;;;5112047;28;19951;-87
2022/11/28 08:01:35;;;;;;;;;;;8.00;99.90;;;;;;5092990;28;19973;-87
2022/11/28 08:04:03;;;;;;;;;;;8.00;99.90;;;;;;5083430;28;19934;-88
2022/11/28 08:06:34;;;;;;;;;;;8.30;99.90;;;;;;5093666;28;20385;-88
2022/11/28 08:09:02;;;;;;;;;;;8.10;99.90;;;;;;5107275;28;19983;-87
2022/11/28 08:11:29;;;;;;;;;;;8.10;99.90;;;;;;5107085;28;19977;-87
2022/11/28 08:13:56;;;;;;;;;;;8.10;99.90;;;;;;5105926;28;19943;-88
2022/11/28 08:16:24;;;;;;;;;;;8.10;99.90;;;;;;5091677;28;19947;-87
2022/11/28 08:18:51;;;;;;;;;;;8.10;99.90;;;;;;5090619;28;19924;-87
2022/11/28 08:21:22;;;;;;;;;;;8.20;99.90;;;;;;5090861;28;19928;-87
2022/11/28 08:23:51;;;;;;;;;;;8.20;99.90;;;;;;5105509;28;19928;-87
2022/11/28 08:26:19;;;;;;;;;;;8.20;99.90;;;;;;5114830;28;20042;-87
2022/11/28 08:28:46;;;;;;;;;;;8.20;99.90;;;;;;5096019;28;19924;-87
2022/11/28 08:31:14;;;;;;;;;;;8.20;99.90;;;;;;5099273;28;20417;-86
2022/11/28 08:33:42;;;;;;;;;;;8.20;99.90;;;;;;5118115;27;20401;-85
2022/11/28 08:36:10;;;;;;;;;;;8.30;99.90;;;;;;5096469;28;19932;-86
2022/11/28 08:38:37;;;;;;;;;;;8.30;99.90;;;;;;5100575;27;19928;-87
2022/11/28 08:41:06;;;;;;;;;;;8.30;99.90;;;;;;5112649;28;19929;-88
2022/11/28 08:43:34;;;;;;;;;;;8.30;99.90;;;;;;5105292;28;19928;-87
2022/11/28 08:46:00;;;;;;;;;;;8.40;99.90;;;;;;5114327;28;20279;-87
2022/11/28 08:48:28;;;;;;;;;;;8.40;99.90;;;;;;5091356;28;19932;-87
2022/11/28 08:50:55;;;;;;;;;;;8.40;99.90;;;;;;5092241;28;20407;-87
2022/11/28 08:53:22;;;;;;;;;;;8.40;99.90;;;;;;5092188;28;19927;-86
2022/11/28 08:55:48;;;;;;;;;;;8.40;99.90;;;;;;5086260;28;19919;-88
2022/11/28 08:58:17;;;;;;;;;;;8.50;99.90;;;;;;5093050;28;19947;-85
2022/11/28 09:00:44;;;;;;;;;;;8.50;99.90;;;;;;5103475;28;19927;-85
2022/11/28 09:03:13;;;;;;;;;;;8.50;99.90;;;;;;5097643;28;19928;-86
2022/11/28 09:05:40;;;;;;;;;;;8.50;99.90;;;;;;5119953;28;19924;-85
2022/11/28 09:08:09;;;;;;;;;;;8.50;99.90;;;;;;5126546;28;19933;-85
2022/11/28 09:10:37;;;;;;;;;;;8.60;99.90;;;;;;5122190;28;19992;-85
2022/11/28 09:13:04;;;;;;;;;;;8.60;99.90;;;;;;5096212;28;19928;-85
2022/11/28 09:15:32;;;;;;;;;;;8.60;99.90;;;;;;5098383;28;19928;-85
2022/11/28 09:17:59;;;;;;;;;;;8.60;99.90;;;;;;5096179;28;19931;-85
2022/11/28 09:20:26;;;;;;;;;;;8.70;99.90;;;;;;5095507;28;19938;-85
2022/11/28 09:22:53;;;;;;;;;;;8.60;99.90;;;;;;5097203;28;20018;-86
2022/11/28 09:25:19;;;;;;;;;;;8.70;99.90;;;;;;5093357;28;19965;-85
2022/11/28 09:27:47;;;;;;;;;;;8.60;99.90;;;;;;5114837;28;19928;-85
2022/11/28 09:30:17;;;;;;;;;;;8.70;99.90;;;;;;5093951;28;19959;-85
2022/11/28 09:32:47;;;;;;;;;;;8.80;99.90;;;;;;5097804;27;19954;-84
2022/11/28 09:35:14;;;;;;;;;;;8.70;99.90;;;;;;5090529;28;19923;-86
2022/11/28 09:37:42;;;;;;;;;;;8.60;99.90;;;;;;5075727;28;19939;-87
2022/11/28 09:40:14;;;;;;;;;;;8.60;99.90;;;;;;5090360;28;19928;-86
2022/11/28 09:42:43;;;;;;;;;;;8.60;99.90;;;;;;5096990;28;20023;-88
2022/11/28 09:45:11;;;;;;;;;;;8.60;99.90;;;;;;5092733;28;19946;-87
2022/11/28 09:47:40;;;;;;;;;;;8.60;99.90;;;;;;5113893;28;19978;-87
2022/11/28 09:50:14;;;;;;;;;;;8.60;99.90;;;;;;5092436;28;19938;-87
2022/11/28 09:52:47;;;;;;;;;;;8.60;99.90;;;;;;5095156;28;19924;-87
2022/11/28 09:55:18;;;;;;;;;;;8.60;99.90;;;;;;5103705;28;20369;-86
2022/11/28 09:57:45;;;;;;;;;;;8.60;99.90;;;;;;5117272;28;20390;-87
2022/11/28 10:00:17;;;;;;;;;;;8.60;99.90;;;;;;5094165;28;20212;-87
2022/11/28 10:02:50;;;;;;;;;;;8.60;99.90;;;;;;5097584;28;20286;-88
2022/11/28 10:05:20;;;;;;;;;;;8.50;99.90;;;;;;5102632;28;19943;-85
2022/11/28 10:08:00;;;;;;;;;;;8.50;99.90;;;;;;5092944;28;19939;-85
2022/11/28 10:10:33;;;;;;;;;;;8.60;99.90;;;;;;5088852;28;19933;-85
2022/11/28 10:13:02;;;;;;;;;;;8.60;99.90;;;;;;5089602;28;20001;-85
2022/11/28 10:15:34;;;;;;;;;;;8.60;99.90;;;;;;5111927;27;19931;-85
2022/11/28 10:18:07;;;;;;;;;;;8.60;99.90;;;;;;5111170;28;20022;-85
2022/11/28 10:20:36;;;;;;;;;;;8.70;99.90;;;;;;5090511;28;19924;-85
2022/11/28 10:23:08;;;;;;;;;;;8.70;99.90;;;;;;5090615;28;20009;-85
2022/11/28 10:25:36;;;;;;;;;;;8.80;99.90;;;;;;5107145;27;20035;-86
2022/11/28 10:28:04;;;;;;;;;;;8.80;99.90;;;;;;5089900;28;19928;-86
2022/11/28 10:30:35;;;;;;;;;;;8.90;99.90;;;;;;5105456;28;20447;-84
2022/11/28 10:33:05;;;;;;;;;;;8.90;99.90;;;;;;5095363;28;19927;-85
2022/11/28 10:35:39;;;;;;;;;;;8.90;99.90;;;;;;5114387;28;19985;-85
2022/11/28 10:38:13;;;;;;;;;;;9.00;99.90;;;;;;5090534;28;19928;-83
2022/11/28 10:40:42;;;;;;;;;;;9.00;99.90;;;;;;5108199;28;19927;-83
2022/11/28 10:43:12;;;;;;;;;;;9.00;99.90;;;;;;5087640;28;19939;-84
2022/11/28 10:45:46;;;;;;;;;;;9.10;99.90;;;;;;5091541;28;19932;-84
2022/11/28 10:48:18;;;;;;;;;;;9.10;99.90;;;;;;5084364;28;20012;-84
2022/11/28 10:50:49;;;;;;;;;;;9.10;99.90;;;;;;5106070;28;19928;-84
2022/11/28 10:53:23;;;;;;;;;;;9.10;99.90;;;;;;5113381;28;19935;-84
2022/11/28 10:55:56;;;;;;;;;;;9.10;99.90;;;;;;5097300;28;19999;-84
2022/11/28 10:58:26;;;;;;;;;;;9.10;99.90;;;;;;5111011;28;19932;-85
2022/11/28 11:00:57;;;;;;;;;;;9.10;99.90;;;;;;5114988;28;19928;-85
2022/11/28 11:03:26;;;;;;;;;;;9.10;99.90;;;;;;5096417;28;20445;-85
2022/11/28 11:05:53;;;;;;;;;;;9.20;99.90;;;;;;5110385;28;19928;-86
2022/11/28 11:08:22;;;;;;;;;;;9.20;99.90;;;;;;5105338;28;20074;-85
2022/11/28 11:10:50;;;;;;;;;;;9.20;99.90;;;;;;5107186;28;19950;-84
2022/11/28 11:13:19;;;;;;;;;;;9.20;99.90;;;;;;5106816;28;19923;-85
2022/11/28 11:15:46;;;;;;;;;;;9.20;99.90;;;;;;5123484;28;19928;-85
2022/11/28 11:18:23;;;;;;;;;;;9.20;99.90;;;;;;5119980;28;19927;-84
2022/11/28 11:20:51;;;;;;;;;;;9.10;99.90;;;;;;5114823;28;19991;-85
2022/11/28 11:23:19;;;;;;;;;;;9.10;99.90;;;;;;5115747;28;19943;-85
2022/11/28 11:25:50;;;;;;;;;;;9.10;99.90;;;;;;5136172;27;19935;-86
2022/11/28 11:28:41;;;;;;;;;;;9.10;99.90;;;;;;5104830;28;19924;-86
2022/11/28 11:31:16;;;;;;;;;;;9.10;99.90;;;;;;5075624;28;19932;-85
2022/11/28 11:33:43;;;;;;;;;;;9.00;99.90;;;;;;5093304;28;19967;-85
2022/11/28 11:36:20;;;;;;;;;;;9.00;99.90;;;;;;5096552;28;19956;-85
2022/11/28 11:38:48;;;;;;;;;;;9.00;99.90;;;;;;5099329;28;21529;-85
2022/11/28 11:41:27;;;;;;;;;;;9.00;99.90;;;;;;5097450;28;19928;-85
2022/11/28 11:43:54;;;;;;;;;;;9.00;99.90;;;;;;5109779;27;19997;-84
2022/11/28 11:46:21;;;;;;;;;;;9.00;99.90;;;;;;5095317;28;20376;-85
2022/11/28 11:48:49;;;;;;;;;;;9.10;99.90;;;;;;5116522;28;19992;-85
2022/11/28 11:51:27;;;;;;;;;;;9.10;99.90;;;;;;5118246;27;19996;-84
2022/11/28 11:54:03;;;;;;;;;;;9.10;99.90;;;;;;5109115;28;20572;-85
2022/11/28 11:56:34;;;;;;;;;;;9.10;99.90;;;;;;5118956;28;19931;-84
2022/11/28 11:59:03;;;;;;;;;;;9.20;99.90;;;;;;5096373;28;19932;-85
2022/11/28 12:01:31;;;;;;;;;;;9.20;99.90;;;;;;5096341;28;19932;-85
2022/11/28 12:04:00;;;;;;;;;;;9.20;99.90;;;;;;5096847;28;19985;-85
2022/11/28 12:06:28;;;;;;;;;;;9.10;99.90;;;;;;5097905;28;19924;-85
2022/11/28 12:09:03;;;;;;;;;;;9.20;99.90;;;;;;5096239;28;19935;-84
2022/11/28 12:11:33;;;;;;;;;;;9.30;99.90;;;;;;5117250;28;19941;-86
2022/11/28 12:14:20;;;;;;;;;;;9.10;99.90;;;;;;5096012;28;19928;-85
2022/11/28 12:16:52;;;;;;;;;;;9.10;99.90;;;;;;5109472;28;19990;-85
2022/11/28 12:19:32;;;;;;;;;;;9.00;99.90;;;;;;5111608;28;19927;-84
2022/11/28 12:22:11;;;;;;;;;;;9.00;99.90;;;;;;5113478;28;19963;-85
2022/11/28 12:24:42;;;;;;;;;;;9.00;99.90;;;;;;5099329;28;19931;-85
2022/11/28 12:27:17;;;;;;;;;;;9.10;99.90;;;;;;5095150;28;19963;-85
2022/11/28 12:29:51;;;;;;;;;;;8.90;99.90;;;;;;5117482;28;20554;-84
2022/11/28 12:32:28;;;;;;;;;;;8.90;99.90;;;;;;5097485;28;19928;-84
2022/11/28 12:35:01;;;;;;;;;;;8.80;99.90;;;;;;5110312;28;19928;-84
2022/11/28 12:37:32;;;;;;;;;;;8.80;99.90;;;;;;5123509;28;19928;-84
2022/11/28 12:40:03;;;;;;;;;;;8.80;99.90;;;;;;5116494;28;19934;-85
2022/11/28 12:42:38;;;;;;;;;;;8.70;99.90;;;;;;5100279;28;19977;-84
2022/11/28 12:45:19;;;;;;;;;;;8.70;99.90;;;;;;5098324;28;19924;-83
2022/11/28 12:47:50;;;;;;;;;;;8.90;99.90;;;;;;5127087;28;19962;-84
2022/11/28 12:50:23;;;;;;;;;;;8.70;99.90;;;;;;5117429;28;19927;-83
2022/11/28 12:52:58;;;;;;;;;;;8.70;99.90;;;;;;5095526;28;20043;-84
2022/11/28 12:55:32;;;;;;;;;;;8.70;99.90;;;;;;5095363;28;19928;-84
2022/11/28 12:58:04;;;;;;;;;;;8.70;99.90;;;;;;5113448;27;19936;-84
2022/11/28 13:00:32;;;;;;;;;;;8.70;99.90;;;;;;5083709;28;19928;-84
2022/11/28 13:03:06;;;;;;;;;;;8.80;99.90;;;;;;5092212;28;20025;-85
2022/11/28 13:05:45;;;;;;;;;;;8.80;99.90;;;;;;5114238;28;19949;-83
2022/11/28 13:08:29;;;;;;;;;;;8.80;99.90;;;;;;5113470;27;19928;-84
2022/11/28 13:11:01;;;;;;;;;;;8.80;99.90;;;;;;5112371;27;19928;-83
2022/11/28 13:13:32;;;;;;;;;;;8.90;99.90;;;;;;5114429;27;19938;-86
2022/11/28 13:16:04;;;;;;;;;;;8.90;99.90;;;;;;5114297;28;19937;-85
2022/11/28 13:18:48;;;;;;;;;;;8.90;99.90;;;;;;5112502;27;20424;-85
2022/11/28 13:21:19;;;;;;;;;;;8.90;99.90;;;;;;5089393;28;19999;-86
2022/11/28 13:23:50;;;;;;;;;;;8.90;99.90;;;;;;5096306;28;19949;-86
2022/11/28 13:26:21;;;;;;;;;;;8.90;99.90;;;;;;5090901;28;20014;-86
2022/11/28 13:28:52;;;;;;;;;;;10.40;99.90;;;;;;5107536;28;19935;-85
2022/11/28 13:31:22;;;;;;;;;;;8.90;99.90;;;;;;5090008;28;19931;-85
2022/11/28 13:33:50;;;;;;;;;;;8.90;99.90;;;;;;5085855;28;19928;-85
2022/11/28 13:36:32;;;;;;;;;;;8.90;99.90;;;;;;5093023;28;20721;-87
2022/11/28 13:39:01;;;;;;;;;;;8.90;99.90;;;;;;5093784;28;19935;-86
2022/11/28 13:41:33;;;;;;;;;;;8.90;99.90;;;;;;5086153;28;19938;-86
2022/11/28 13:44:14;;;;;;;;;;;8.90;99.90;;;;;;5100577;28;19928;-86
2022/11/28 13:46:41;;;;;;;;;;;8.90;99.90;;;;;;5117092;27;19923;-84
2022/11/28 13:49:10;;;;;;;;;;;8.90;99.90;;;;;;5118882;27;19954;-86
2022/11/28 13:51:37;;;;;;;;;;;8.90;99.90;;;;;;5091599;28;20037;-85
2022/11/28 13:54:19;;;;;;;;;;;8.90;99.90;;;;;;5091076;28;20429;-85
2022/11/28 13:56:46;;;;;;;;;;;8.90;99.90;;;;;;5085111;28;19923;-86
2022/11/28 13:59:18;;;;;;;;;;;8.90;99.90;;;;;;5122073;27;19928;-84
2022/11/28 14:01:47;;;;;;;;;;;8.90;99.90;;;;;;5083189;28;20474;-85
2022/11/28 14:04:16;;;;;;;;;;;8.90;99.90;;;;;;5103202;28;19943;-86
2022/11/28 14:06:45;;;;;;;;;;;8.90;99.90;;;;;;5105452;28;19916;-85
2022/11/28 14:09:21;;;;;;;;;;;8.90;99.90;;;;;;5101702;28;20354;-85
2022/11/28 14:12:02;;;;;;;;;;;8.90;99.90;;;;;;5093528;28;19943;-85
2022/11/28 14:14:56;;;;;;;;;;;9.00;99.90;;;;;;5097019;28;19985;-85
2022/11/28 14:17:32;;;;;;;;;;;9.00;99.90;;;;;;5075336;28;20026;-84
2022/11/28 14:20:04;;;;;;;;;;;9.00;99.90;;;;;;5082098;28;19934;-85
2022/11/28 14:22:38;;;;;;;;;;;9.00;99.90;;;;;;5094859;28;20406;-86
2022/11/28 14:25:09;;;;;;;;;;;9.00;99.90;;;;;;5095821;28;20018;-86
2022/11/28 14:27:38;;;;;;;;;;;9.00;99.90;;;;;;5092224;28;19928;-86
2022/11/28 14:30:22;;;;;;;;;;;9.00;99.90;;;;;;5096327;28;19943;-86
2022/11/28 14:32:55;;;;;;;;;;;9.00;99.90;;;;;;5123195;28;19987;-86
2022/11/28 14:35:37;;;;;;;;;;;9.00;99.90;;;;;;5088172;28;20018;-85
2022/11/28 14:38:25;;;;;;;;;;;9.00;99.90;;;;;;5103261;28;20063;-88
2022/11/28 14:41:02;;;;;;;;;;;9.00;99.90;;;;;;5084241;28;20446;-85
2022/11/28 14:43:29;;;;;;;;;;;9.00;99.90;;;;;;5090975;28;20358;-86
2022/11/28 14:46:15;;;;;;;;;;;9.00;99.90;;;;;;5090789;28;20018;-86
2022/11/28 14:49:03;;;;;;;;;;;9.00;99.90;;;;;;5092809;28;19928;-86